Terminal Aerodrome Forecast
Issued by NWS

Home | Current Version | Previous Version | Text Only | Print | Product List | Glossary On
Versions: 1 2 3 4 5 6 7 8 9 10 11 12 13 14 15 16 17 18
207
FTUS41 KBTV 270956 AAC
TAFSLK
TAF AMD
KSLK 270956Z 2710/2806 22003KT 1/4SM FG VV001
      TEMPO 2710/2712 1/2SM FG VV002
     FM271200 22003KT P6SM SCT250
     FM271500 23007KT P6SM SCT035 SCT250
     FM271900 24005KT P6SM SCT050 SCT250
     FM272300 VRB03KT P6SM SCT060=

USA.gov is the U.S. government's official web portal to all federal, state and local government web resources and services.